Nearby METAR Reports

 

KMQY - Smyrna, Tennessee, USA
Distance from station: WNW 14mi, 22km
Updated: Tue, 16-Apr-2024 10:56am CDT
Clear
Clear
 Wind from SSE
Wind: SSE 14 mph , 22 km/h
Temperature: 75°F , 24°C
Dew Point: 63°F , 17°C
Humidity: 65%
Barometer: 30.06 inHg , 1017.9 hPa
Clouds: Clear
Visibility: 10 miles , 16 km
2024/04/16 15:56 KMQY 161556Z 16012KT 10SM CLR 24/17 A3006 RMK AO2 SLP183 T02440172
KSYI - Shelbyville, Tennessee, USA
Distance from station: SSW 25mi, 40km
Updated: Tue, 16-Apr-2024 10:55am CDT
Clear
Clear
 Wind from S
Wind: S 15 mph , 24 km/h, Gust: 22 mph , 35 km/h
Temperature: 77°F , 25°C
Dew Point: 61°F , 16°C
Humidity: 57%
Barometer: 30.06 inHg , 1017.9 hPa
Clouds: Clear
Visibility: 10 miles , 16 km
2024/04/16 15:55 KSYI 161555Z AUTO 18013G19KT 10SM CLR 25/16 A3006 RMK A01
KBNA - Nashville, Tennessee, USA
Distance from station: NW 25mi, 41km
Updated: Tue, 16-Apr-2024 10:53am CDT
Mostly cloudy
Mostly cloudy
 Wind from S
Wind: S 16 mph , 26 km/h, Gust: 23 mph , 37 km/h
Temperature: 79°F , 26°C
Dew Point: 61°F , 16°C
Humidity: 54%
Barometer: 30.05 inHg , 1017.6 hPa
Clouds: Mostly cloudy
Visibility: 10 miles , 16 km
Cloud details: Few Clouds 16000 ft
Mostly cloudy 18000 ft
2024/04/16 15:53 KBNA 161553Z 19014G20KT 10SM FEW160 BKN180 26/16 A3005 RMK AO2 SLP168 T02610156
 
KRNC - Mcminnville, Tennessee, USA
Distance from station: ESE 30mi, 48km
Updated: Tue, 16-Apr-2024 10:55am CDT
Few Clouds
Few Clouds
 Wind from varies
Wind: varies 5 mph , 7 km/h
Temperature: 77°F , 25°C
Dew Point: 57°F , 14°C
Humidity: 51%
Barometer: 30.07 inHg , 1018.3 hPa
Clouds: Few Clouds
Visibility: 10 miles , 16 km
Cloud details: Few Clouds 12000 ft
2024/04/16 15:55 KRNC 161555Z AUTO VRB04KT 10SM FEW120 25/14 A3007 RMK A01
KM33 - Gallatin, Tennessee, USA
Distance from station: N 33mi, 54km
Updated: Wed, 23-May-2018 7:55pm CDT
NOT Current
Clear
Clear
 Wind from calm
Wind: Calm
Temperature: 79°F , 26°C
Dew Point: 66°F , 19°C
Humidity: 65%
Barometer: 30.10 inHg , 1019.3 hPa
Clouds: Clear
Visibility: 10 miles , 16 km
2018/05/24 00:55 KM33 240055Z AUTO 00000KT 10SM CLR 26/19 A3010 RMK A01
KTHA - Tullahoma, Tennessee, USA
Distance from station: S 36mi, 59km
Updated: Tue, 16-Apr-2024 10:55am CDT
Clear
Clear
 Wind from S
Wind: S 14 mph , 22 km/h, Gust: 20 mph , 31 km/h
Temperature: 75°F , 24°C
Dew Point: 57°F , 14°C
Humidity: 54%
Barometer: 30.07 inHg , 1018.3 hPa
Clouds: Clear
Visibility: 10 miles , 16 km
2024/04/16 15:55 KTHA 161555Z AUTO 17012G17KT 10SM CLR 24/14 A3007 RMK A01
 
KJWN - Nashv/Jc Tune, Tennessee, USA
Distance from station: WNW 37mi, 60km
Updated: Tue, 16-Apr-2024 10:50am CDT
Clear
Clear
 Wind from S
Wind: S 14 mph , 22 km/h
Temperature: 77°F , 25°C
Dew Point: 61°F , 16°C
Humidity: 57%
Barometer: 30.02 inHg , 1016.6 hPa
Clouds: Clear
Visibility: 10 miles , 16 km
2024/04/16 15:50 KJWN 161550Z 19012KT 10SM CLR 25/16 A3002
KSRB - Sparta, Tennessee, USA
Distance from station: ENE 45mi, 72km
Updated: Tue, 16-Apr-2024 10:55am CDT
Clear
Clear
 Wind from S
Wind: S 7 mph , 11 km/h
Temperature: 73°F , 23°C
Dew Point: 59°F , 15°C
Humidity: 61%
Barometer: 30.09 inHg , 1019 hPa
Clouds: Clear
Visibility: 10 miles , 16 km
2024/04/16 15:55 KSRB 161555Z AUTO 18006KT 10SM CLR 23/15 A3009 RMK AO2
K1M5 - Portland, Tennessee, USA
Distance from station: NNW 49mi, 78km
Updated: Tue, 16-Apr-2024 10:55am CDT
Clear
Clear
 Wind from S
Wind: S 10 mph , 17 km/h
Temperature: 75°F , 24°C
Dew Point: 61°F , 16°C
Humidity: 61%
Barometer: 30.03 inHg , 1016.9 hPa
Clouds: Clear
Visibility: 10 miles , 16 km
2024/04/16 15:55 K1M5 161555Z AUTO 17009KT 10SM CLR 24/16 A3003 RMK A01